| time (UTC) | temp F | wind direction | speed MPH | gust MPH | rain 1hr in | rain 24hr in | rain mn in | humidity % | barometer mb |
| 20260510214018 | 56 | 174 | 1.0 | 4.0 | 0.00 | 0.12 | 0.00 | 94 | 1012.9 |
| 20260510213018 | 57 | 162 | 3.0 | 6.0 | 0.00 | 0.13 | 0.00 | 93 | 1012.7 |
| 20260510212018 | 57 | 157 | 2.0 | 6.0 | 0.00 | 0.13 | 0.00 | 93 | 1012.6 |
| 20260510211018 | 57 | 175 | 1.0 | 2.0 | 0.00 | 0.13 | 0.00 | 92 | 1012.5 |
| 20260510210018 | 58 | 0.0 | 0.0 | 0.00 | 0.13 | 0.00 | 91 | 1012.4 | |
| 20260510205039 | 61 | 147 | 4.0 | 7.0 | 0.00 | 0.13 | 0.00 | 87 | 1012.4 |
| 20260510204019 | 62 | 158 | 1.0 | 3.0 | 0.00 | 0.13 | 0.00 | 85 | 1012.2 |
| 20260510203019 | 61 | 138 | 2.0 | 3.0 | 0.00 | 0.13 | 0.00 | 86 | 1012.2 |
| 20260510202019 | 60 | 156 | 2.0 | 3.0 | 0.00 | 0.13 | 0.00 | 88 | 1012.2 |
| 20260510201019 | 59 | 161 | 3.0 | 4.0 | 0.00 | 0.13 | 0.00 | 89 | 1012.2 |
| 20260510200019 | 60 | 146 | 2.0 | 3.0 | 0.00 | 0.13 | 0.00 | 87 | 1012.5 |
| 20260510195019 | 61 | 142 | 2.0 | 3.0 | 0.00 | 0.13 | 0.00 | 87 | 1012.5 |
| 20260510194019 | 62 | 174 | 1.0 | 2.0 | 0.00 | 0.14 | 0.00 | 85 | 1012.7 |
| 20260510193020 | 62 | 262 | 1.0 | 3.0 | 0.00 | 0.15 | 0.00 | 84 | 1012.8 |
| 20260510192020 | 61 | 312 | 2.0 | 3.0 | 0.00 | 0.16 | 0.00 | 86 | 1012.8 |
| 20260510191020 | 60 | 328 | 1.0 | 2.0 | 0.00 | 0.19 | 0.00 | 88 | 1012.9 |
| 20260510190020 | 59 | 204 | 0.0 | 1.0 | 0.00 | 0.21 | 0.00 | 88 | 1013.0 |
| 20260510185021 | 59 | 160 | 2.0 | 3.0 | 0.00 | 0.22 | 0.00 | 89 | 1013.0 |
| 20260510184020 | 59 | 153 | 2.0 | 2.0 | 0.00 | 0.24 | 0.00 | 88 | 1013.0 |
| 20260510183021 | 60 | 147 | 3.0 | 4.0 | 0.00 | 0.26 | 0.00 | 88 | 1013.1 |
| 20260510182016 | 63 | 148 | 4.0 | 5.0 | 0.00 | 0.27 | 0.00 | 83 | 1012.8 |
| 20260510181021 | 64 | 157 | 2.0 | 3.0 | 0.00 | 0.28 | 0.00 | 80 | 1012.7 |
| 20260510180022 | 64 | 154 | 2.0 | 4.0 | 0.00 | 0.28 | 0.00 | 82 | 1012.9 |
| 20260510175021 | 64 | 187 | 2.0 | 5.0 | 0.00 | 0.29 | 0.00 | 81 | 1012.9 |
| 20260510174021 | 64 | 202 | 1.0 | 4.0 | 0.00 | 0.29 | 0.00 | 83 | 1012.8 |
| 20260510173017 | 62 | 205 | 3.0 | 5.0 | 0.00 | 0.29 | 0.00 | 84 | 1012.8 |
| 20260510172021 | 61 | 233 | 2.0 | 4.0 | 0.00 | 0.29 | 0.00 | 86 | 1013.0 |
| 20260510171022 | 61 | 309 | 2.0 | 4.0 | 0.00 | 0.29 | 0.00 | 88 | 1013.0 |
| 20260510170022 | 60 | 243 | 3.0 | 5.0 | 0.00 | 0.29 | 0.00 | 87 | 1013.0 |
| 20260510165017 | 60 | 306 | 3.0 | 8.0 | 0.00 | 0.29 | 0.00 | 88 | 1013.2 |
| 20260510164017 | 60 | 305 | 3.0 | 7.0 | 0.00 | 0.29 | 0.00 | 88 | 1013.2 |
| 20260510163023 | 60 | 273 | 2.0 | 5.0 | 0.00 | 0.29 | 0.00 | 87 | 1013.1 |
| 20260510162038 | 60 | 256 | 2.0 | 7.0 | 0.00 | 0.29 | 0.00 | 89 | 1013.1 |
| 20260510161023 | 60 | 325 | 2.0 | 4.0 | 0.00 | 0.29 | 0.00 | 89 | 1013.1 |
| 20260510160018 | 60 | 329 | 3.0 | 6.0 | 0.00 | 0.29 | 0.00 | 89 | 1013.1 |
| 20260510155023 | 59 | 330 | 2.0 | 5.0 | 0.00 | 0.29 | 0.00 | 90 | 1013.1 |
| 20260510154018 | 59 | 308 | 3.0 | 7.0 | 0.00 | 0.29 | 0.00 | 89 | 1013.3 |
| 20260510153043 | 58 | 268 | 2.0 | 3.0 | 0.00 | 0.29 | 0.00 | 90 | 1013.4 |
| 20260510152024 | 57 | 242 | 2.0 | 4.0 | 0.00 | 0.29 | 0.00 | 91 | 1013.6 |
| 20260510151023 | 56 | 152 | 3.0 | 4.0 | 0.00 | 0.29 | 0.00 | 91 | 1013.6 |
| 20260510150023 | 56 | 158 | 2.0 | 4.0 | 0.00 | 0.29 | 0.00 | 91 | 1013.5 |
| 20260510145023 | 55 | 150 | 3.0 | 4.0 | 0.00 | 0.29 | 0.00 | 92 | 1013.4 |
| 20260510144024 | 55 | 150 | 2.0 | 4.0 | 0.00 | 0.29 | 0.00 | 93 | 1013.3 |
| 20260510143024 | 55 | 131 | 2.0 | 3.0 | 0.00 | 0.29 | 0.00 | 94 | 1013.2 |
| 20260510142024 | 54 | 192 | 1.0 | 2.0 | 0.00 | 0.29 | 0.00 | 96 | 1012.9 |
| 20260510141024 | 53 | 171 | 1.0 | 2.0 | 0.00 | 0.29 | 0.00 | 96 | 1013.1 |
| 20260510140025 | 53 | 186 | 1.0 | 3.0 | 0.00 | 0.29 | 0.00 | 97 | 1013.2 |
| 20260510135044 | 53 | 147 | 1.0 | 2.0 | 0.00 | 0.29 | 0.00 | 97 | 1013.3 |
| 20260510134025 | 53 | 151 | 2.0 | 3.0 | 0.00 | 0.29 | 0.00 | 97 | 1013.1 |
| 20260510133025 | 53 | 152 | 3.0 | 4.0 | 0.00 | 0.29 | 0.00 | 97 | 1013.1 |
| 20260510132025 | 53 | 149 | 2.0 | 4.0 | 0.00 | 0.29 | 0.00 | 97 | 1013.0 |
| 20260510131025 | 53 | 167 | 2.0 | 4.0 | 0.00 | 0.29 | 0.00 | 97 | 1013.1 |
| 20260510130025 | 54 | 151 | 2.0 | 4.0 | 0.00 | 0.29 | 0.00 | 96 | 1013.0 |
| 20260510125026 | 54 | 154 | 2.0 | 3.0 | 0.00 | 0.29 | 0.00 | 97 | 1012.7 |
| 20260510124026 | 53 | 160 | 1.0 | 2.0 | 0.00 | 0.29 | 0.00 | 98 | 1012.6 |
| 20260510123026 | 53 | 142 | 2.0 | 2.0 | 0.00 | 0.29 | 0.00 | 98 | 1012.3 |
| 20260510122027 | 53 | 169 | 1.0 | 3.0 | 0.00 | 0.29 | 0.00 | 99 | 1012.2 |
| 20260510121046 | 53 | 148 | 2.0 | 3.0 | 0.00 | 0.29 | 0.00 | 99 | 1012.3 |
| 20260510120027 | 53 | 158 | 1.0 | 2.0 | 0.00 | 0.29 | 0.00 | 99 | 1012.3 |
| 20260510115026 | 53 | 167 | 2.0 | 3.0 | 0.00 | 0.29 | 0.00 | 99 | 1012.1 |
| 20260510114027 | 53 | 169 | 1.0 | 2.0 | 0.00 | 0.29 | 0.00 | 99 | 1012.0 |
| 20260510113027 | 52 | 156 | 2.0 | 3.0 | 0.00 | 0.29 | 0.00 | 99 | 1011.9 |
| 20260510112027 | 52 | 178 | 1.0 | 2.0 | 0.00 | 0.29 | 0.00 | 99 | 1012.0 |
| 20260510111027 | 52 | 138 | 2.0 | 3.0 | 0.00 | 0.29 | 0.00 | 99 | 1012.0 |
| 20260510110027 | 52 | 167 | 1.0 | 2.0 | 0.00 | 0.29 | 0.00 | 99 | 1012.1 |
| 20260510105029 | 52 | 188 | 2.0 | 3.0 | 0.00 | 0.29 | 0.00 | 99 | 1011.9 |
| 20260510104048 | 52 | 160 | 2.0 | 3.0 | 0.00 | 0.29 | 0.00 | 99 | 1011.8 |
| 20260510103028 | 52 | 157 | 1.0 | 3.0 | 0.00 | 0.29 | 0.00 | 99 | 1012.0 |
| 20260510102028 | 52 | 282 | 0.0 | 2.0 | 0.00 | 0.29 | 0.00 | 99 | 1011.9 |
| 20260510101028 | 52 | 177 | 1.0 | 3.0 | 0.00 | 0.29 | 0.00 | 99 | 1012.0 |
| 20260510100028 | 52 | 166 | 1.0 | 3.0 | 0.00 | 0.29 | 0.00 | 99 | 1012.0 |
| 20260510095033 | 52 | 234 | 1.0 | 1.0 | 0.00 | 0.29 | 0.00 | 99 | 1012.0 |
| 20260510094029 | 52 | 315 | 1.0 | 2.0 | 0.00 | 0.29 | 0.00 | 99 | 1012.2 |
| 20260510093029 | 52 | 348 | 0.0 | 2.0 | 0.00 | 0.29 | 0.00 | 99 | 1012.2 |
| 20260510092016 | 52 | 228 | 0.0 | 2.0 | 0.00 | 0.29 | 0.00 | 99 | 1012.2 |
| 20260510091016 | 52 | 336 | 1.0 | 3.0 | 0.00 | 0.29 | 0.00 | 99 | 1012.2 |
| 20260510090016 | 52 | 231 | 0.0 | 2.0 | 0.00 | 0.29 | 0.00 | 99 | 1012.1 |
| 20260510085016 | 52 | 326 | 2.0 | 3.0 | 0.00 | 0.29 | 0.00 | 99 | 1012.2 |
| 20260510084036 | 52 | 318 | 1.0 | 2.0 | 0.00 | 0.29 | 0.00 | 99 | 1012.2 |
| 20260510083017 | 52 | 314 | 2.0 | 3.0 | 0.00 | 0.29 | 0.00 | 99 | 1011.9 |
| 20260510082017 | 52 | 295 | 0.0 | 1.0 | 0.00 | 0.29 | 0.00 | 99 | 1011.5 |
| 20260510081017 | 52 | 178 | 2.0 | 3.0 | 0.00 | 0.29 | 0.00 | 99 | 1011.3 |
| 20260510080017 | 52 | 209 | 1.0 | 2.0 | 0.00 | 0.29 | 0.00 | 99 | 1011.3 |
| 20260510075038 | 52 | 182 | 1.0 | 2.0 | 0.00 | 0.29 | 0.00 | 99 | 1011.3 |
| 20260510074037 | 52 | 174 | 1.0 | 2.0 | 0.00 | 0.29 | 0.00 | 99 | 1011.3 |
| 20260510073017 | 52 | 277 | 1.0 | 2.0 | 0.00 | 0.30 | 0.00 | 99 | 1011.4 |
| 20260510072039 | 52 | 284 | 0.0 | 1.0 | 0.00 | 0.30 | 0.00 | 99 | 1011.3 |
| 20260510071018 | 52 | 341 | 1.0 | 3.0 | 0.00 | 0.30 | 0.00 | 99 | 1011.4 |
| 20260510070018 | 52 | 234 | 1.0 | 1.0 | 0.00 | 0.30 | 0.00 | 99 | 1011.3 |
| 20260510065038 | 52 | 170 | 1.0 | 1.0 | 0.00 | 0.30 | 0.00 | 99 | 1011.4 |
| 20260510064038 | 52 | 180 | 1.0 | 3.0 | 0.00 | 0.30 | 0.00 | 99 | 1011.4 |
| 20260510063018 | 52 | 201 | 0.0 | 1.0 | 0.00 | 0.30 | 0.00 | 99 | 1011.2 |
| 20260510062019 | 52 | 157 | 1.0 | 2.0 | 0.00 | 0.31 | 0.00 | 99 | 1011.1 |
| 20260510061019 | 52 | 193 | 0.0 | 1.0 | 0.00 | 0.31 | 0.00 | 99 | 1011.0 |
| 20260510060039 | 52 | 184 | 1.0 | 2.0 | 0.00 | 0.31 | 0.00 | 99 | 1011.0 |
| 20260510055019 | 52 | 143 | 1.0 | 2.0 | 0.00 | 0.31 | 0.00 | 99 | 1011.1 |
| 20260510054019 | 52 | 354 | 0.0 | 1.0 | 0.00 | 0.31 | 0.00 | 99 | 1011.3 |
| 20260510053019 | 52 | 205 | 1.0 | 2.0 | 0.00 | 0.31 | 0.00 | 99 | 1011.3 |
| 20260510052021 | 53 | 166 | 1.0 | 2.0 | 0.00 | 0.31 | 0.00 | 99 | 1011.4 |
| 20260510051041 | 53 | 204 | 1.0 | 2.0 | 0.00 | 0.31 | 0.00 | 99 | 1011.4 |
| 20260510050020 | 53 | 166 | 1.0 | 2.0 | 0.00 | 0.31 | 0.00 | 99 | 1011.2 |
| 20260510045020 | 53 | 167 | 0.0 | 1.0 | 0.00 | 0.31 | 0.00 | 99 | 1011.3 |
| 20260510044020 | 53 | 224 | 1.0 | 2.0 | 0.00 | 0.31 | 0.00 | 99 | 1011.4 |
| 20260510043020 | 53 | 0.0 | 0.0 | 0.00 | 0.31 | 0.00 | 99 | 1011.3 | |
| 20260510042021 | 53 | 273 | 0.0 | 2.0 | 0.00 | 0.31 | 0.00 | 99 | 1011.1 |
| 20260510041041 | 53 | 322 | 0.0 | 2.0 | 0.00 | 0.31 | 0.00 | 99 | 1011.0 |
| 20260510040021 | 53 | 200 | 1.0 | 1.0 | 0.00 | 0.31 | 0.00 | 99 | 1010.9 |
| 20260510035021 | 53 | 194 | 0.0 | 1.0 | 0.00 | 0.31 | 0.31 | 99 | 1010.9 |
| 20260510034021 | 53 | 198 | 0.0 | 1.0 | 0.00 | 0.31 | 0.31 | 99 | 1010.9 |
| 20260510033022 | 53 | 223 | 0.0 | 1.0 | 0.00 | 0.31 | 0.31 | 99 | 1010.8 |
| 20260510032044 | 53 | 329 | 1.0 | 3.0 | 0.00 | 0.31 | 0.31 | 99 | 1010.9 |
| 20260510031022 | 53 | 210 | 0.0 | 1.0 | 0.00 | 0.31 | 0.31 | 99 | 1010.9 |
| 20260510030022 | 53 | 241 | 0.0 | 1.0 | 0.00 | 0.31 | 0.31 | 99 | 1011.0 |
| 20260510025022 | 53 | 274 | 0.0 | 2.0 | 0.00 | 0.31 | 0.31 | 99 | 1011.1 |
| 20260510024022 | 53 | 332 | 1.0 | 2.0 | 0.00 | 0.31 | 0.31 | 99 | 1011.1 |
| 20260510023043 | 53 | 289 | 1.0 | 2.0 | 0.00 | 0.31 | 0.31 | 99 | 1011.1 |
| 20260510022023 | 53 | 271 | 1.0 | 2.0 | 0.00 | 0.31 | 0.31 | 99 | 1011.1 |
| 20260510021023 | 53 | 257 | 1.0 | 2.0 | 0.00 | 0.31 | 0.31 | 99 | 1011.1 |
| 20260510020023 | 53 | 223 | 1.0 | 2.0 | 0.00 | 0.31 | 0.31 | 98 | 1011.1 |
| 20260510015023 | 53 | 267 | 1.0 | 1.0 | 0.00 | 0.31 | 0.31 | 98 | 1011.1 |
| 20260510014043 | 53 | 290 | 1.0 | 3.0 | 0.00 | 0.31 | 0.31 | 98 | 1010.9 |
| 20260510013023 | 53 | 216 | 1.0 | 2.0 | 0.00 | 0.31 | 0.31 | 98 | 1010.8 |
| 20260510012024 | 53 | 193 | 1.0 | 2.0 | 0.00 | 0.31 | 0.31 | 98 | 1010.7 |
| 20260510011024 | 53 | 180 | 1.0 | 2.0 | 0.00 | 0.31 | 0.31 | 98 | 1010.7 |
| 20260510010024 | 53 | 332 | 0.0 | 1.0 | 0.00 | 0.31 | 0.31 | 98 | 1010.7 |
| 20260510005024 | 53 | 95 | 0.0 | 0.0 | 0.00 | 0.31 | 0.31 | 98 | 1010.7 |
| 20260510004044 | 53 | 251 | 0.0 | 1.0 | 0.00 | 0.31 | 0.31 | 98 | 1010.7 |
| 20260510003025 | 53 | 344 | 0.0 | 1.0 | 0.00 | 0.31 | 0.31 | 98 | 1010.6 |
| 20260510002024 | 53 | 270 | 0.0 | 1.0 | 0.00 | 0.31 | 0.31 | 98 | 1010.5 |
| 20260510001025 | 53 | 343 | 1.0 | 3.0 | 0.01 | 0.31 | 0.31 | 98 | 1010.5 |
| 20260510000025 | 54 | 204 | 1.0 | 2.0 | 0.02 | 0.31 | 0.31 | 98 | 1010.5 |
| 20260509235025 | 53 | 191 | 1.0 | 2.0 | 0.03 | 0.31 | 0.31 | 98 | 1010.5 |
| 20260509234025 | 53 | 334 | 1.0 | 2.0 | 0.04 | 0.31 | 0.31 | 98 | 1010.2 |
| 20260509233026 | 53 | 327 | 2.0 | 3.0 | 0.08 | 0.31 | 0.31 | 97 | 1010.0 |
| 20260509232026 | 54 | 212 | 1.0 | 2.0 | 0.09 | 0.31 | 0.31 | 97 | 1009.8 |
| 20260509231026 | 54 | 145 | 2.0 | 3.0 | 0.09 | 0.30 | 0.30 | 97 | 1011.0 |
| 20260509230026 | 54 | 179 | 2.0 | 3.0 | 0.08 | 0.29 | 0.29 | 97 | 1011.0 |
| 20260509225026 | 55 | 149 | 2.0 | 3.0 | 0.08 | 0.28 | 0.28 | 97 | 1010.9 |
| 20260509224026 | 55 | 134 | 1.0 | 3.0 | 0.08 | 0.28 | 0.28 | 96 | 1011.1 |
| 20260509223027 | 55 | 316 | 2.0 | 4.0 | 0.04 | 0.23 | 0.23 | 96 | 1011.3 |
| 20260509222047 | 55 | 141 | 0.0 | 2.0 | 0.03 | 0.22 | 0.22 | 96 | 1011.0 |
| 20260509221026 | 55 | 185 | 0.0 | 1.0 | 0.03 | 0.22 | 0.22 | 96 | 1011.1 |
| 20260509220027 | 55 | 180 | 0.0 | 1.0 | 0.03 | 0.21 | 0.21 | 96 | 1011.1 |
| 20260509215027 | 55 | 0.0 | 0.0 | 0.02 | 0.20 | 0.20 | 96 | 1011.2 |